Portada
METAR-TAF:

METAR-TAF

Aeropuertos :

Bahawalpur, Pakistán

latitud: 29-20-53N, longitud: 71-43-04E, altitud: 119 m

METAR: falta

Hora: 07:16 (02:16 UTC)

Pronóstico

El informe se hizo hace 4 horas y 31 minutos, a las 21:45 UTC
Pronóstico válido del 29 a las 00 UTC al 29 a las 18 UTC
Viento 10 kt del noreste
Visibilidad: 4000 m
Nubes dispersas a una altura de 10000 ft
calima
Probabilidad 30% :
Temporalmente
del 29 a las 12 UTC al 29 a las 16 UTC
Viento 30 kt del norte
Visibilidad: 0800 m
Escasas nubes a una altura de 3000 ft, Cumulonimbus.
Nubes dispersas a una altura de 4000 ft
Nubes dispersas a una altura de 10000 ft

TAF: OPBW 282145Z 2900/2918 05010KT 4000 HZ SCT100 TN25/2901Z TX42/2910Z PROB30 TEMPO 2912/2916 36030KT 0800 DSTS FEW030CB SCT040 SCT100

Observaciones y pronósticos meteorológicos de más de 4000 aeropuertos (mensajes METAR y TAF).

Los puntos amarillos y rojos representan las estaciones disponibles.

Ponga el ratón en el punto deseado para ver el nombre de la estación.

Haga clic para ver las observaciones y los pronósticos meteorológicos.

Para cambiar el mapa : haga clic en los botones verdes con una cruz de color negro para hacer un zoom, en el botón verde con un guión para alejar o en las flechas verdes para mapas adyacentes.


METAR-TAF: